createdAt,value
2023-03-29T00:00:35.686Z,9.30
2023-03-29T00:03:04.465Z,9.20
2023-03-29T00:05:35.040Z,9.20
2023-03-29T00:08:04.695Z,9.20
2023-03-29T00:10:34.289Z,9.30
2023-03-29T00:13:03.452Z,9.30
2023-03-29T00:15:31.464Z,9.20
2023-03-29T00:17:59.742Z,9.30
2023-03-29T00:20:28.735Z,9.30
2023-03-29T00:22:56.877Z,9.30
2023-03-29T00:25:26.337Z,9.30
2023-03-29T00:27:54.419Z,9.30
2023-03-29T00:30:22.457Z,9.30
2023-03-29T00:32:51.819Z,9.20
2023-03-29T00:35:20.176Z,9.10
2023-03-29T00:37:50.960Z,9.20
2023-03-29T00:40:19.816Z,9.20
2023-03-29T00:42:49.155Z,9.10
2023-03-29T00:45:20.392Z,9.20
2023-03-29T00:47:51.533Z,9.30
2023-03-29T00:50:25.808Z,9.20
2023-03-29T00:53:00.809Z,9.20
2023-03-29T01:00:05.265Z,9.20
2023-03-29T01:02:39.661Z,9.20
2023-03-29T01:05:11.421Z,9.20
2023-03-29T01:07:48.149Z,9.20
2023-03-29T01:10:21.021Z,9.10
2023-03-29T01:12:52.490Z,9.20
2023-03-29T01:15:26.529Z,9.10
2023-03-29T01:17:57.881Z,9.10
2023-03-29T01:20:37.085Z,9.10
2023-03-29T01:23:22.305Z,9.10
2023-03-29T01:26:00.008Z,9.10
2023-03-29T01:28:32.747Z,9.00
2023-03-29T01:31:08.441Z,9.10
2023-03-29T01:33:41.519Z,9.10
2023-03-29T01:36:16.391Z,9.10
2023-03-29T01:38:50.042Z,9.10
2023-03-29T01:41:18.310Z,9.10
2023-03-29T01:43:53.786Z,9.10
2023-03-29T01:46:33.411Z,9.10
2023-03-29T01:49:05.141Z,9.10
2023-03-29T01:51:37.543Z,9.10
2023-03-29T01:54:08.734Z,9.10
2023-03-29T01:56:40.511Z,9.10
2023-03-29T01:59:14.284Z,9.00
2023-03-29T02:01:49.280Z,9.00
2023-03-29T02:04:20.969Z,8.90
2023-03-29T02:06:54.101Z,9.00
2023-03-29T02:09:23.280Z,9.10
2023-03-29T02:11:52.770Z,9.00
2023-03-29T02:14:22.081Z,9.00
2023-03-29T02:16:50.124Z,8.90
2023-03-29T02:19:19.167Z,9.10
2023-03-29T02:21:56.672Z,9.00
2023-03-29T02:24:26.455Z,9.00
2023-03-29T02:26:54.610Z,9.00
2023-03-29T02:29:24.004Z,9.00
2023-03-29T02:31:58.175Z,9.00
2023-03-29T02:34:30.269Z,8.90
2023-03-29T02:37:01.194Z,8.90
2023-03-29T02:39:31.707Z,8.90
2023-03-29T02:42:00.509Z,8.90
2023-03-29T02:44:34.181Z,9.00
2023-03-29T02:47:07.693Z,9.00
2023-03-29T02:49:35.917Z,9.00
2023-03-29T02:52:10.098Z,9.00
2023-03-29T02:54:43.403Z,9.00
2023-03-29T02:57:12.327Z,9.00
2023-03-29T02:59:43.924Z,9.10
2023-03-29T03:02:13.589Z,9.10
2023-03-29T03:04:43.225Z,9.10
2023-03-29T03:07:11.904Z,9.10
2023-03-29T03:09:41.170Z,9.10
2023-03-29T03:12:10.245Z,9.10
2023-03-29T03:14:38.228Z,9.10
2023-03-29T03:17:07.608Z,9.00
2023-03-29T03:19:36.264Z,9.10
2023-03-29T03:22:06.060Z,9.10
2023-03-29T03:24:34.455Z,9.00
2023-03-29T03:27:02.816Z,9.00
2023-03-29T03:29:30.868Z,9.10
2023-03-29T03:32:26.378Z,9.10
2023-03-29T03:35:20.862Z,9.10
2023-03-29T03:37:48.993Z,9.10
2023-03-29T03:40:18.822Z,9.10
2023-03-29T03:42:46.833Z,9.10
2023-03-29T03:45:15.287Z,9.00
2023-03-29T03:48:17.533Z,9.00
2023-03-29T03:51:00.024Z,9.10
2023-03-29T03:53:33.771Z,9.00
2023-03-29T03:56:22.094Z,9.00
2023-03-29T03:59:14.524Z,9.00
2023-03-29T04:01:55.240Z,9.10
2023-03-29T04:04:27.051Z,9.10
2023-03-29T04:07:04.115Z,9.00
2023-03-29T04:09:37.779Z,9.00
2023-03-29T04:12:16.973Z,9.00
2023-03-29T04:14:47.420Z,8.90
2023-03-29T04:17:23.003Z,8.90
2023-03-29T04:19:57.508Z,8.90
2023-03-29T04:22:28.130Z,8.90
2023-03-29T04:24:56.194Z,8.90
2023-03-29T04:27:43.328Z,8.90
2023-03-29T04:30:22.027Z,9.00
2023-03-29T04:33:08.254Z,9.10
2023-03-29T04:35:39.227Z,9.00
2023-03-29T04:38:11.567Z,9.00
2023-03-29T04:40:40.773Z,8.90
2023-03-29T04:43:35.086Z,8.90
2023-03-29T04:46:13.282Z,9.00
2023-03-29T04:48:59.933Z,8.90
2023-03-29T04:51:38.259Z,9.00
2023-03-29T04:54:07.633Z,8.90
2023-03-29T04:56:54.424Z,8.90
2023-03-29T04:59:55.148Z,9.00
2023-03-29T05:02:44.001Z,9.00
2023-03-29T05:05:13.821Z,9.00
2023-03-29T05:07:45.119Z,9.00
2023-03-29T05:10:14.821Z,9.00
2023-03-29T05:12:43.299Z,9.00
2023-03-29T05:15:12.068Z,9.10
2023-03-29T05:17:40.754Z,9.10
2023-03-29T05:20:13.188Z,9.10
2023-03-29T05:22:44.861Z,9.00
2023-03-29T05:25:20.478Z,9.00
2023-03-29T05:27:48.509Z,9.00
2023-03-29T05:30:16.751Z,9.00
2023-03-29T05:32:50.983Z,9.00
2023-03-29T05:35:26.156Z,9.00
2023-03-29T05:37:56.474Z,9.00
2023-03-29T05:40:26.120Z,9.10
2023-03-29T05:43:12.592Z,9.10
2023-03-29T05:45:40.716Z,9.10
2023-03-29T05:48:09.198Z,9.10
2023-03-29T05:50:40.467Z,9.10
2023-03-29T05:53:10.013Z,9.10
2023-03-29T05:55:38.663Z,9.10
2023-03-29T05:58:06.803Z,9.10
2023-03-29T06:00:37.042Z,9.10
2023-03-29T06:03:25.550Z,9.10
2023-03-29T06:05:59.420Z,9.10
2023-03-29T06:08:29.822Z,9.10
2023-03-29T06:11:18.172Z,9.10
2023-03-29T06:14:15.452Z,9.10
2023-03-29T06:16:49.573Z,9.20
2023-03-29T06:19:18.743Z,9.20
2023-03-29T06:21:47.378Z,9.20
2023-03-29T06:24:21.365Z,9.30
2023-03-29T06:26:56.329Z,9.30
2023-03-29T06:29:24.508Z,9.30
2023-03-29T06:31:54.676Z,9.30
2023-03-29T06:34:42.746Z,9.20
2023-03-29T06:37:30.020Z,9.30
2023-03-29T06:40:11.250Z,9.40
2023-03-29T06:42:45.081Z,9.40
2023-03-29T06:45:16.155Z,9.50
2023-03-29T06:47:48.683Z,9.50
2023-03-29T06:50:17.398Z,9.50
2023-03-29T06:52:53.039Z,9.50
2023-03-29T06:55:23.449Z,9.50
2023-03-29T06:57:52.632Z,9.50
2023-03-29T07:00:27.711Z,9.60
2023-03-29T07:03:23.312Z,9.60
2023-03-29T07:06:01.143Z,9.70
2023-03-29T07:08:31.513Z,9.60
2023-03-29T07:11:04.984Z,9.70
2023-03-29T07:13:51.951Z,9.70
2023-03-29T07:16:21.768Z,9.80
2023-03-29T07:19:03.716Z,9.80
2023-03-29T07:21:50.328Z,9.70
2023-03-29T07:24:19.822Z,9.80
2023-03-29T07:27:03.439Z,9.80
2023-03-29T07:29:33.350Z,9.90
2023-03-29T07:32:01.401Z,9.90
2023-03-29T07:34:49.531Z,9.80
2023-03-29T07:37:25.630Z,9.90
2023-03-29T07:39:54.718Z,9.90
2023-03-29T07:42:43.796Z,9.90
2023-03-29T07:45:17.398Z,9.90
2023-03-29T07:47:59.112Z,9.90
2023-03-29T07:50:32.438Z,9.90
2023-03-29T07:53:02.964Z,9.90
2023-03-29T07:55:32.708Z,9.90
2023-03-29T07:58:30.873Z,9.90
2023-03-29T08:01:01.234Z,10.00
2023-03-29T08:03:48.137Z,10.00
2023-03-29T08:06:17.094Z,10.00
2023-03-29T08:08:47.727Z,9.90
2023-03-29T08:11:18.687Z,10.00
2023-03-29T08:13:59.591Z,10.00
2023-03-29T08:16:27.820Z,10.00
2023-03-29T08:19:07.386Z,10.00
2023-03-29T08:21:53.831Z,10.00
2023-03-29T08:24:24.893Z,10.00
2023-03-29T08:26:57.809Z,10.10
2023-03-29T08:29:29.155Z,10.10
2023-03-29T08:31:58.274Z,10.00
2023-03-29T08:34:26.553Z,10.10
2023-03-29T08:37:26.921Z,10.10
2023-03-29T08:39:57.366Z,10.10
2023-03-29T08:43:07.008Z,10.10
2023-03-29T08:46:06.277Z,10.10
2023-03-29T08:48:38.833Z,10.20
2023-03-29T08:51:21.460Z,10.20
2023-03-29T08:53:54.268Z,10.30
2023-03-29T08:56:37.294Z,10.40
2023-03-29T08:59:25.549Z,10.50
2023-03-29T09:01:58.301Z,10.50
2023-03-29T09:04:29.437Z,10.70
2023-03-29T09:07:10.210Z,10.70
2023-03-29T09:09:43.715Z,10.80
2023-03-29T09:12:45.585Z,10.80
2023-03-29T09:15:19.447Z,10.70
2023-03-29T09:18:07.017Z,10.70
2023-03-29T09:20:47.625Z,10.70
2023-03-29T09:23:30.404Z,10.80
2023-03-29T09:26:22.305Z,10.80
2023-03-29T09:29:26.977Z,10.80
2023-03-29T09:31:56.816Z,10.90
2023-03-29T09:34:31.715Z,10.90
2023-03-29T09:37:12.101Z,10.90
2023-03-29T09:39:42.193Z,10.90
2023-03-29T09:42:16.968Z,10.90
2023-03-29T09:44:48.754Z,11.00
2023-03-29T09:47:25.957Z,11.00
2023-03-29T09:50:00.593Z,11.00
2023-03-29T09:52:28.892Z,10.90
2023-03-29T09:55:15.387Z,11.00
2023-03-29T09:58:13.423Z,11.00
2023-03-29T10:00:46.226Z,11.10
2023-03-29T10:03:20.245Z,11.10
2023-03-29T10:05:59.676Z,11.00
2023-03-29T10:08:29.757Z,11.10
2023-03-29T10:11:01.871Z,11.20
2023-03-29T10:13:32.538Z,11.20
2023-03-29T10:16:05.161Z,11.20
2023-03-29T10:18:34.270Z,11.20
2023-03-29T10:21:05.520Z,11.20
2023-03-29T10:23:35.891Z,11.20
2023-03-29T10:26:06.706Z,11.20
2023-03-29T10:28:36.985Z,11.30
2023-03-29T10:31:08.103Z,11.20
2023-03-29T10:33:37.471Z,11.20
2023-03-29T10:36:09.603Z,11.30
2023-03-29T10:38:38.636Z,11.30
2023-03-29T10:41:10.163Z,11.30
2023-03-29T10:43:40.144Z,11.30
2023-03-29T10:46:11.022Z,11.30
2023-03-29T10:48:49.012Z,11.30
2023-03-29T10:51:19.994Z,11.30
2023-03-29T10:53:48.462Z,11.30
2023-03-29T10:56:30.557Z,11.30
2023-03-29T10:59:18.259Z,11.30
2023-03-29T11:01:56.072Z,11.40
2023-03-29T11:04:35.618Z,11.40
2023-03-29T11:07:26.243Z,11.40
2023-03-29T11:10:02.067Z,11.40
2023-03-29T11:12:39.488Z,11.40
2023-03-29T11:15:33.490Z,11.40
2023-03-29T11:18:14.082Z,11.40
2023-03-29T11:20:46.330Z,11.50
2023-03-29T11:23:26.335Z,11.50
2023-03-29T11:26:02.361Z,11.50
2023-03-29T11:28:36.851Z,11.50
2023-03-29T11:31:13.971Z,11.50
2023-03-29T11:33:52.980Z,11.60
2023-03-29T11:36:32.588Z,11.60
2023-03-29T11:39:06.373Z,11.60
2023-03-29T11:41:36.861Z,11.60
2023-03-29T11:44:10.882Z,11.60
2023-03-29T11:46:43.074Z,11.60
2023-03-29T11:49:15.793Z,11.60
2023-03-29T11:51:46.947Z,11.60
2023-03-29T11:54:23.442Z,11.70
2023-03-29T11:56:56.430Z,11.70
2023-03-29T11:59:29.306Z,11.70
2023-03-29T12:02:06.510Z,11.70
2023-03-29T12:04:41.537Z,11.80
2023-03-29T12:07:16.130Z,11.80
2023-03-29T12:09:50.267Z,11.80
2023-03-29T12:12:25.037Z,11.90
2023-03-29T12:15:00.776Z,12.00
2023-03-29T12:17:33.215Z,12.10
2023-03-29T12:20:07.962Z,12.30
2023-03-29T12:22:41.323Z,12.40
2023-03-29T12:25:19.682Z,12.50
2023-03-29T12:28:00.781Z,12.60
2023-03-29T12:30:43.616Z,12.60
2023-03-29T12:33:39.514Z,12.50
2023-03-29T12:36:52.573Z,12.50
2023-03-29T12:39:22.891Z,12.50
2023-03-29T12:42:17.689Z,12.60
2023-03-29T12:45:05.807Z,12.50
2023-03-29T12:47:39.625Z,12.60
2023-03-29T12:50:19.569Z,12.60
2023-03-29T12:52:47.713Z,12.60
2023-03-29T12:55:32.197Z,12.60
2023-03-29T12:58:08.344Z,12.60
2023-03-29T13:00:46.020Z,12.70
2023-03-29T13:03:24.093Z,12.70
2023-03-29T13:06:02.488Z,12.60
2023-03-29T13:08:35.965Z,12.60
2023-03-29T13:11:05.298Z,12.60
2023-03-29T13:13:37.873Z,12.70
2023-03-29T13:16:17.226Z,12.70
2023-03-29T13:18:58.697Z,12.70
2023-03-29T13:21:36.208Z,12.70
2023-03-29T13:24:13.587Z,12.70
2023-03-29T13:26:55.664Z,12.70
2023-03-29T13:29:41.469Z,12.60
2023-03-29T13:32:29.238Z,12.60
2023-03-29T13:35:04.528Z,12.60
2023-03-29T13:37:41.429Z,12.60
2023-03-29T13:40:33.089Z,12.60
2023-03-29T13:43:09.540Z,12.60
2023-03-29T13:45:40.474Z,12.60
2023-03-29T13:48:26.261Z,12.60
2023-03-29T13:50:56.978Z,12.60
2023-03-29T13:53:29.942Z,12.60
2023-03-29T13:56:00.436Z,12.60
2023-03-29T13:58:37.464Z,12.60
2023-03-29T14:01:14.257Z,12.60
2023-03-29T14:03:45.655Z,12.60
2023-03-29T14:06:16.403Z,12.60
2023-03-29T14:08:45.826Z,12.60
2023-03-29T14:11:23.982Z,12.70
2023-03-29T14:13:54.904Z,12.60
2023-03-29T14:16:28.109Z,12.70
2023-03-29T14:19:00.193Z,12.60
2023-03-29T14:21:28.417Z,12.70
2023-03-29T14:23:59.586Z,12.70
2023-03-29T14:26:32.825Z,12.70
2023-03-29T14:29:02.787Z,12.70
2023-03-29T14:31:35.077Z,12.70
2023-03-29T14:34:04.971Z,12.70
2023-03-29T14:36:34.826Z,12.70
2023-03-29T14:39:06.017Z,12.70
2023-03-29T14:41:36.634Z,12.70
2023-03-29T14:44:06.719Z,12.70
2023-03-29T14:46:36.804Z,12.70
2023-03-29T14:49:06.225Z,12.70
2023-03-29T14:51:34.629Z,12.80
2023-03-29T14:54:05.102Z,12.70
2023-03-29T14:56:34.213Z,12.70
2023-03-29T14:59:05.279Z,12.70
2023-03-29T15:01:33.455Z,12.70
2023-03-29T15:04:06.899Z,12.70
2023-03-29T15:06:40.114Z,12.70
2023-03-29T15:09:09.086Z,12.70
2023-03-29T15:11:39.732Z,12.70
2023-03-29T15:14:09.877Z,12.70
2023-03-29T15:16:40.236Z,12.70
2023-03-29T15:19:16.932Z,12.70
2023-03-29T15:21:47.804Z,12.70
2023-03-29T15:24:22.611Z,12.70
2023-03-29T15:27:01.244Z,12.70
2023-03-29T15:29:36.210Z,12.70
2023-03-29T15:32:04.526Z,12.70
2023-03-29T15:34:35.258Z,12.70
2023-03-29T15:37:04.130Z,12.70
2023-03-29T15:39:33.645Z,12.70
2023-03-29T15:42:01.781Z,12.70
2023-03-29T15:44:33.314Z,12.70
2023-03-29T15:47:01.482Z,12.70
2023-03-29T15:49:29.592Z,12.70
2023-03-29T15:51:58.998Z,12.80
2023-03-29T15:54:28.987Z,12.70
2023-03-29T15:57:01.790Z,12.70
2023-03-29T15:59:31.192Z,12.70
2023-03-29T16:01:59.669Z,12.80
2023-03-29T16:04:27.788Z,12.80
2023-03-29T16:06:57.912Z,12.80
2023-03-29T16:09:27.788Z,12.70
2023-03-29T16:11:57.507Z,12.80
2023-03-29T16:14:28.424Z,12.80
2023-03-29T16:17:01.489Z,12.70
2023-03-29T16:19:32.743Z,12.70
2023-03-29T16:22:07.611Z,12.80
2023-03-29T16:24:38.013Z,12.80
2023-03-29T16:27:07.595Z,12.80
2023-03-29T16:29:37.424Z,12.80
2023-03-29T16:32:07.141Z,12.80
2023-03-29T16:34:35.873Z,12.70
2023-03-29T16:37:05.316Z,12.70
2023-03-29T16:39:33.356Z,12.70
2023-03-29T16:42:01.396Z,12.70
2023-03-29T16:44:29.402Z,12.70
2023-03-29T16:46:58.349Z,12.70
2023-03-29T16:49:26.468Z,12.70
2023-03-29T16:51:54.495Z,12.70
2023-03-29T16:54:25.563Z,12.70
2023-03-29T16:56:53.644Z,12.80
2023-03-29T16:59:21.767Z,12.80
2023-03-29T17:01:49.858Z,12.70
2023-03-29T17:04:17.953Z,12.80
2023-03-29T17:06:45.984Z,12.80
2023-03-29T17:09:14.025Z,12.70
2023-03-29T17:11:43.712Z,12.80
2023-03-29T17:14:11.782Z,12.70
2023-03-29T17:16:39.996Z,12.80
2023-03-29T17:19:08.079Z,12.70
2023-03-29T17:21:36.161Z,12.70
2023-03-29T17:24:04.274Z,12.80
2023-03-29T17:26:33.113Z,12.80
2023-03-29T17:29:02.854Z,12.70
2023-03-29T17:31:31.043Z,12.70
2023-03-29T17:33:59.583Z,12.70
2023-03-29T17:36:28.983Z,12.70
2023-03-29T17:41:30.429Z,12.70
2023-03-29T17:43:58.976Z,12.70
2023-03-29T17:46:28.358Z,12.70
2023-03-29T17:48:58.907Z,12.70
2023-03-29T17:51:27.442Z,12.70
2023-03-29T17:53:57.070Z,12.70
2023-03-29T17:56:26.243Z,12.70
2023-03-29T17:58:54.894Z,12.70
2023-03-29T18:01:23.241Z,12.70
2023-03-29T18:03:52.668Z,12.70
2023-03-29T18:06:20.954Z,12.70
2023-03-29T18:08:49.243Z,12.70
2023-03-29T18:11:22.236Z,12.70
2023-03-29T18:13:50.389Z,12.70
2023-03-29T18:16:18.711Z,12.70
2023-03-29T18:18:47.322Z,12.70
2023-03-29T18:21:17.555Z,12.70
2023-03-29T18:23:47.082Z,12.70
2023-03-29T18:26:16.036Z,12.70
2023-03-29T18:28:46.578Z,12.70
2023-03-29T18:31:15.314Z,12.70
2023-03-29T18:33:43.624Z,12.70
2023-03-29T18:36:13.343Z,12.70
2023-03-29T18:38:44.083Z,12.70
2023-03-29T18:41:13.267Z,12.70
2023-03-29T18:43:43.006Z,12.70
2023-03-29T18:46:11.171Z,12.70
2023-03-29T18:48:39.769Z,12.70
2023-03-29T18:51:08.766Z,12.70
2023-03-29T18:53:38.605Z,12.70
2023-03-29T18:56:08.111Z,12.70
2023-03-29T18:58:36.562Z,12.70
2023-03-29T19:01:06.802Z,12.70
2023-03-29T19:03:36.210Z,12.70
2023-03-29T19:06:04.920Z,12.70
2023-03-29T19:08:34.970Z,12.70
2023-03-29T19:11:05.477Z,12.70
2023-03-29T19:13:34.967Z,12.70
2023-03-29T19:16:03.711Z,12.70
2023-03-29T19:18:31.949Z,12.70
2023-03-29T19:21:00.037Z,12.70
2023-03-29T19:23:28.340Z,12.70
2023-03-29T19:25:58.000Z,12.70
2023-03-29T19:28:26.481Z,12.70
2023-03-29T19:30:56.787Z,12.70
2023-03-29T19:33:24.807Z,12.70
2023-03-29T19:35:53.129Z,12.70
2023-03-29T19:38:21.465Z,12.70
2023-03-29T19:40:50.790Z,12.70
2023-03-29T19:43:20.606Z,12.70
2023-03-29T19:45:49.964Z,12.70
2023-03-29T19:48:23.012Z,12.60
2023-03-29T19:50:51.923Z,12.70
2023-03-29T19:53:20.041Z,12.70
2023-03-29T19:55:48.661Z,12.70
2023-03-29T19:58:16.702Z,12.70
2023-03-29T20:00:46.559Z,12.70
2023-03-29T20:03:15.614Z,12.70
2023-03-29T20:05:45.183Z,12.70
2023-03-29T20:08:13.203Z,12.70
2023-03-29T20:10:41.490Z,12.70
2023-03-29T20:13:09.517Z,12.70
2023-03-29T20:15:37.525Z,12.70
2023-03-29T20:18:06.282Z,12.70
2023-03-29T20:20:35.638Z,12.60
2023-03-29T20:23:05.566Z,12.60
2023-03-29T20:25:33.768Z,12.60
2023-03-29T20:28:01.754Z,12.60
2023-03-29T20:30:29.891Z,12.50
2023-03-29T20:32:57.986Z,12.60
2023-03-29T20:35:26.043Z,12.60
2023-03-29T20:37:54.293Z,12.60
2023-03-29T20:40:23.629Z,12.60
2023-03-29T20:42:54.112Z,12.60
2023-03-29T20:45:22.267Z,12.50
2023-03-29T20:47:57.573Z,12.50
2023-03-29T20:50:29.265Z,12.50
2023-03-29T20:53:02.025Z,12.60
2023-03-29T20:55:33.288Z,12.50
2023-03-29T20:58:02.258Z,12.60
2023-03-29T21:00:33.402Z,12.50
2023-03-29T21:03:03.586Z,12.60
2023-03-29T21:05:33.199Z,12.60
2023-03-29T21:08:02.346Z,12.60
2023-03-29T21:10:31.941Z,12.60
2023-03-29T21:13:00.449Z,12.60
2023-03-29T21:15:30.559Z,12.60
2023-03-29T21:17:59.405Z,12.50
2023-03-29T21:20:27.810Z,12.60
2023-03-29T21:22:55.893Z,12.50
2023-03-29T21:25:23.888Z,12.60
2023-03-29T21:27:53.273Z,12.50
2023-03-29T21:30:21.455Z,12.60
2023-03-29T21:32:49.550Z,12.60
2023-03-29T21:35:17.678Z,12.60
2023-03-29T21:37:45.748Z,12.60
2023-03-29T21:40:14.522Z,12.60
2023-03-29T21:42:42.996Z,12.50
2023-03-29T21:45:13.004Z,12.60
2023-03-29T21:47:41.161Z,12.60
2023-03-29T21:50:10.661Z,12.60
2023-03-29T21:52:38.725Z,12.50
2023-03-29T21:55:07.442Z,12.60
2023-03-29T21:57:35.873Z,12.60
2023-03-29T22:00:05.253Z,12.50
2023-03-29T22:02:34.706Z,12.50
2023-03-29T22:05:02.895Z,12.50
2023-03-29T22:07:30.930Z,12.50
2023-03-29T22:10:04.204Z,12.50
2023-03-29T22:12:34.476Z,12.50
2023-03-29T22:15:03.018Z,12.50
2023-03-29T22:17:31.070Z,12.50
2023-03-29T22:20:00.451Z,12.60
2023-03-29T22:22:28.516Z,12.50
2023-03-29T22:24:56.598Z,12.60
2023-03-29T22:27:24.771Z,12.60
2023-03-29T22:29:52.794Z,12.50
2023-03-29T22:32:21.120Z,12.50
2023-03-29T22:34:49.151Z,12.60
2023-03-29T22:37:18.711Z,12.60
2023-03-29T22:39:46.854Z,12.60
2023-03-29T22:42:14.906Z,12.50
2023-03-29T22:44:43.000Z,12.50
2023-03-29T22:47:11.306Z,12.50
2023-03-29T22:49:39.474Z,12.50
2023-03-29T22:52:07.691Z,12.50
2023-03-29T22:54:37.083Z,12.60
2023-03-29T22:57:05.704Z,12.60
2023-03-29T22:59:33.739Z,12.60
2023-03-29T23:02:01.813Z,12.50
2023-03-29T23:04:29.975Z,12.50
2023-03-29T23:06:58.395Z,12.60
2023-03-29T23:09:26.402Z,12.60
2023-03-29T23:11:55.770Z,12.60
2023-03-29T23:14:23.753Z,12.50
2023-03-29T23:16:51.817Z,12.50
2023-03-29T23:19:19.831Z,12.50
2023-03-29T23:21:47.810Z,12.60
2023-03-29T23:24:19.005Z,12.60
2023-03-29T23:26:49.012Z,12.50
2023-03-29T23:29:18.509Z,12.50
2023-03-29T23:31:47.723Z,12.50
2023-03-29T23:34:15.878Z,12.50
2023-03-29T23:36:43.902Z,12.50
2023-03-29T23:39:11.896Z,12.40
2023-03-29T23:41:40.182Z,12.40
2023-03-29T23:44:08.486Z,12.40
2023-03-29T23:46:38.082Z,12.40
2023-03-29T23:49:06.202Z,12.40
2023-03-29T23:51:34.907Z,12.40
2023-03-29T23:54:03.357Z,12.40
2023-03-29T23:56:31.464Z,12.30
2023-03-29T23:58:59.463Z,12.30
